sensor_id;sensor_type;location;lat;lon;timestamp;temperature;humidity
26947;DHT22;14501;52.282;10.560;2022-11-15T00:02:52;6.50;99.90
26947;DHT22;14501;52.282;10.560;2022-11-15T00:05:18;6.50;99.90
26947;DHT22;14501;52.282;10.560;2022-11-15T00:10:10;6.30;99.90
26947;DHT22;14501;52.282;10.560;2022-11-15T00:12:36;6.30;99.90
26947;DHT22;14501;52.282;10.560;2022-11-15T00:15:02;6.30;99.90
26947;DHT22;14501;52.282;10.560;2022-11-15T00:17:27;6.40;99.90
26947;DHT22;14501;52.282;10.560;2022-11-15T00:19:53;6.30;99.90
26947;DHT22;14501;52.282;10.560;2022-11-15T00:22:18;6.30;99.90
26947;DHT22;14501;52.282;10.560;2022-11-15T00:24:44;6.30;99.90
26947;DHT22;14501;52.282;10.560;2022-11-15T00:27:10;6.40;99.90
26947;DHT22;14501;52.282;10.560;2022-11-15T00:29:35;8.80;99.90
26947;DHT22;14501;52.282;10.560;2022-11-15T00:32:04;6.30;99.90
26947;DHT22;14501;52.282;10.560;2022-11-15T00:34:29;6.20;99.90
26947;DHT22;14501;52.282;10.560;2022-11-15T00:36:55;7.50;99.90
26947;DHT22;14501;52.282;10.560;2022-11-15T00:44:13;5.90;99.90
26947;DHT22;14501;52.282;10.560;2022-11-15T00:49:04;5.70;99.90
26947;DHT22;14501;52.282;10.560;2022-11-15T00:56:22;5.60;99.90
26947;DHT22;14501;52.282;10.560;2022-11-15T00:58:47;5.50;99.90
26947;DHT22;14501;52.282;10.560;2022-11-15T01:01:14;5.50;99.90
26947;DHT22;14501;52.282;10.560;2022-11-15T01:03:40;5.30;99.90
26947;DHT22;14501;52.282;10.560;2022-11-15T01:06:07;5.40;99.90
26947;DHT22;14501;52.282;10.560;2022-11-15T01:08:33;6.00;99.90
26947;DHT22;14501;52.282;10.560;2022-11-15T01:11:05;5.50;99.90
26947;DHT22;14501;52.282;10.560;2022-11-15T01:13:32;5.50;99.90
26947;DHT22;14501;52.282;10.560;2022-11-15T01:16:05;5.60;99.90
26947;DHT22;14501;52.282;10.560;2022-11-15T01:18:30;5.60;99.90
26947;DHT22;14501;52.282;10.560;2022-11-15T01:20:56;5.80;99.90
26947;DHT22;14501;52.282;10.560;2022-11-15T01:25:47;5.90;99.90
26947;DHT22;14501;52.282;10.560;2022-11-15T01:30:39;5.90;99.90
26947;DHT22;14501;52.282;10.560;2022-11-15T01:33:05;5.90;99.90
26947;DHT22;14501;52.282;10.560;2022-11-15T01:35:30;9.50;99.90
26947;DHT22;14501;52.282;10.560;2022-11-15T01:37:56;6.80;99.90
26947;DHT22;14501;52.282;10.560;2022-11-15T01:42:47;5.90;99.90
26947;DHT22;14501;52.282;10.560;2022-11-15T01:45:16;5.90;99.90
26947;DHT22;14501;52.282;10.560;2022-11-15T01:47:46;5.60;99.90
26947;DHT22;14501;52.282;10.560;2022-11-15T01:50:17;5.90;99.90
26947;DHT22;14501;52.282;10.560;2022-11-15T01:52:44;5.90;99.90
26947;DHT22;14501;52.282;10.560;2022-11-15T01:55:16;5.80;99.90
26947;DHT22;14501;52.282;10.560;2022-11-15T01:57:48;6.00;99.90
26947;DHT22;14501;52.282;10.560;2022-11-15T02:00:16;5.90;99.90
26947;DHT22;14501;52.282;10.560;2022-11-15T02:02:43;5.90;99.90
26947;DHT22;14501;52.282;10.560;2022-11-15T02:05:09;6.10;99.90
26947;DHT22;14501;52.282;10.560;2022-11-15T02:07:35;6.00;99.90
26947;DHT22;14501;52.282;10.560;2022-11-15T02:10:19;6.70;99.90
26947;DHT22;14501;52.282;10.560;2022-11-15T02:12:45;6.20;99.90
26947;DHT22;14501;52.282;10.560;2022-11-15T02:15:12;6.30;99.90
26947;DHT22;14501;52.282;10.560;2022-11-15T02:18:15;6.30;99.90
26947;DHT22;14501;52.282;10.560;2022-11-15T02:20:52;6.30;99.90
26947;DHT22;14501;52.282;10.560;2022-11-15T02:23:37;6.20;99.90
26947;DHT22;14501;52.282;10.560;2022-11-15T02:29:01;6.20;99.90
26947;DHT22;14501;52.282;10.560;2022-11-15T02:42:45;6.30;99.90
26947;DHT22;14501;52.282;10.560;2022-11-15T02:45:46;6.20;99.90
26947;DHT22;14501;52.282;10.560;2022-11-15T02:48:14;6.20;99.90
26947;DHT22;14501;52.282;10.560;2022-11-15T02:50:41;6.20;99.90
26947;DHT22;14501;52.282;10.560;2022-11-15T02:53:08;6.20;99.90
26947;DHT22;14501;52.282;10.560;2022-11-15T02:55:40;6.20;99.90
26947;DHT22;14501;52.282;10.560;2022-11-15T02:58:38;6.30;99.90
26947;DHT22;14501;52.282;10.560;2022-11-15T03:01:24;6.20;99.90
26947;DHT22;14501;52.282;10.560;2022-11-15T03:06:41;6.20;99.90
26947;DHT22;14501;52.282;10.560;2022-11-15T03:09:13;6.30;99.90
26947;DHT22;14501;52.282;10.560;2022-11-15T03:11:50;6.40;99.90
26947;DHT22;14501;52.282;10.560;2022-11-15T03:17:11;6.60;99.90
26947;DHT22;14501;52.282;10.560;2022-11-15T03:19:49;6.70;99.90
26947;DHT22;14501;52.282;10.560;2022-11-15T03:22:19;7.40;99.90
26947;DHT22;14501;52.282;10.560;2022-11-15T03:24:47;7.10;99.90
26947;DHT22;14501;52.282;10.560;2022-11-15T03:27:19;7.30;99.90
26947;DHT22;14501;52.282;10.560;2022-11-15T03:29:50;7.40;99.90
26947;DHT22;14501;52.282;10.560;2022-11-15T03:32:25;7.50;99.90
26947;DHT22;14501;52.282;10.560;2022-11-15T03:34:56;8.50;99.90
26947;DHT22;14501;52.282;10.560;2022-11-15T03:37:27;8.90;99.90
26947;DHT22;14501;52.282;10.560;2022-11-15T03:39:55;7.60;99.90
26947;DHT22;14501;52.282;10.560;2022-11-15T03:42:29;7.80;99.90
26947;DHT22;14501;52.282;10.560;2022-11-15T03:47:54;7.20;99.90
26947;DHT22;14501;52.282;10.560;2022-11-15T03:50:24;7.00;99.90
26947;DHT22;14501;52.282;10.560;2022-11-15T03:52:50;6.90;99.90
26947;DHT22;14501;52.282;10.560;2022-11-15T03:55:19;6.90;99.90
26947;DHT22;14501;52.282;10.560;2022-11-15T03:57:46;6.70;99.90
26947;DHT22;14501;52.282;10.560;2022-11-15T04:00:13;7.10;99.90
26947;DHT22;14501;52.282;10.560;2022-11-15T04:02:38;6.60;99.90
26947;DHT22;14501;52.282;10.560;2022-11-15T04:05:04;6.40;99.90
26947;DHT22;14501;52.282;10.560;2022-11-15T04:07:30;6.40;99.90
26947;DHT22;14501;52.282;10.560;2022-11-15T04:09:55;6.30;99.90
26947;DHT22;14501;52.282;10.560;2022-11-15T04:12:44;6.30;99.90
26947;DHT22;14501;52.282;10.560;2022-11-15T04:15:13;6.40;99.90
26947;DHT22;14501;52.282;10.560;2022-11-15T04:17:49;6.50;99.90
26947;DHT22;14501;52.282;10.560;2022-11-15T04:23:04;6.90;99.90
26947;DHT22;14501;52.282;10.560;2022-11-15T04:25:51;6.90;99.90
26947;DHT22;14501;52.282;10.560;2022-11-15T04:28:18;7.00;99.90
26947;DHT22;14501;52.282;10.560;2022-11-15T04:30:44;8.30;99.90
26947;DHT22;14501;52.282;10.560;2022-11-15T04:33:09;7.10;99.90
26947;DHT22;14501;52.282;10.560;2022-11-15T04:35:35;9.30;99.90
26947;DHT22;14501;52.282;10.560;2022-11-15T04:38:02;7.60;99.90
26947;DHT22;14501;52.282;10.560;2022-11-15T04:40:28;7.10;99.90
26947;DHT22;14501;52.282;10.560;2022-11-15T04:42:53;7.20;99.90
26947;DHT22;14501;52.282;10.560;2022-11-15T04:45:19;7.10;99.90
26947;DHT22;14501;52.282;10.560;2022-11-15T04:47:45;7.20;99.90
26947;DHT22;14501;52.282;10.560;2022-11-15T04:50:12;7.50;99.90
26947;DHT22;14501;52.282;10.560;2022-11-15T04:52:43;7.60;99.90
26947;DHT22;14501;52.282;10.560;2022-11-15T04:55:12;7.20;99.90
26947;DHT22;14501;52.282;10.560;2022-11-15T04:57:38;7.30;99.90
26947;DHT22;14501;52.282;10.560;2022-11-15T05:00:05;7.70;99.90
26947;DHT22;14501;52.282;10.560;2022-11-15T05:02:31;7.40;99.90
26947;DHT22;14501;52.282;10.560;2022-11-15T05:05:16;7.40;99.90
26947;DHT22;14501;52.282;10.560;2022-11-15T05:07:41;7.40;99.90
26947;DHT22;14501;52.282;10.560;2022-11-15T05:10:07;7.40;99.90
26947;DHT22;14501;52.282;10.560;2022-11-15T05:12:33;7.50;99.90
26947;DHT22;14501;52.282;10.560;2022-11-15T05:14:58;7.50;99.90
26947;DHT22;14501;52.282;10.560;2022-11-15T05:17:24;7.50;99.90
26947;DHT22;14501;52.282;10.560;2022-11-15T05:19:49;8.20;99.90
26947;DHT22;14501;52.282;10.560;2022-11-15T05:22:17;9.50;99.90
26947;DHT22;14501;52.282;10.560;2022-11-15T05:24:43;7.70;99.90
26947;DHT22;14501;52.282;10.560;2022-11-15T05:27:09;9.10;99.90
26947;DHT22;14501;52.282;10.560;2022-11-15T05:29:34;8.10;99.90
26947;DHT22;14501;52.282;10.560;2022-11-15T05:32:05;9.80;99.90
26947;DHT22;14501;52.282;10.560;2022-11-15T05:34:30;7.80;99.90
26947;DHT22;14501;52.282;10.560;2022-11-15T05:36:56;8.30;99.90
26947;DHT22;14501;52.282;10.560;2022-11-15T05:39:22;7.80;99.90
26947;DHT22;14501;52.282;10.560;2022-11-15T05:41:52;7.80;99.90
26947;DHT22;14501;52.282;10.560;2022-11-15T05:44:21;7.70;99.90
26947;DHT22;14501;52.282;10.560;2022-11-15T05:46:48;9.50;99.90
26947;DHT22;14501;52.282;10.560;2022-11-15T05:49:17;8.00;99.90
26947;DHT22;14501;52.282;10.560;2022-11-15T05:51:46;7.80;99.90
26947;DHT22;14501;52.282;10.560;2022-11-15T05:54:12;7.60;99.90
26947;DHT22;14501;52.282;10.560;2022-11-15T05:56:39;7.80;99.90
26947;DHT22;14501;52.282;10.560;2022-11-15T05:59:05;9.50;99.90
26947;DHT22;14501;52.282;10.560;2022-11-15T06:01:32;8.70;99.90
26947;DHT22;14501;52.282;10.560;2022-11-15T06:03:58;7.40;99.90
26947;DHT22;14501;52.282;10.560;2022-11-15T06:06:23;7.40;99.90
26947;DHT22;14501;52.282;10.560;2022-11-15T06:08:49;7.70;99.90
26947;DHT22;14501;52.282;10.560;2022-11-15T06:11:15;8.20;99.90
26947;DHT22;14501;52.282;10.560;2022-11-15T06:13:40;7.10;99.90
26947;DHT22;14501;52.282;10.560;2022-11-15T06:16:06;7.20;99.90
26947;DHT22;14501;52.282;10.560;2022-11-15T06:18:33;7.00;99.90
26947;DHT22;14501;52.282;10.560;2022-11-15T06:20:59;7.00;99.90
26947;DHT22;14501;52.282;10.560;2022-11-15T06:23:25;6.90;99.90
26947;DHT22;14501;52.282;10.560;2022-11-15T06:25:51;7.20;99.90
26947;DHT22;14501;52.282;10.560;2022-11-15T06:28:16;6.90;99.90
26947;DHT22;14501;52.282;10.560;2022-11-15T06:30:42;6.80;99.90
26947;DHT22;14501;52.282;10.560;2022-11-15T06:33:07;6.70;99.90
26947;DHT22;14501;52.282;10.560;2022-11-15T06:35:35;6.70;99.90
26947;DHT22;14501;52.282;10.560;2022-11-15T06:38:06;7.10;99.90
26947;DHT22;14501;52.282;10.560;2022-11-15T06:40:36;6.60;99.90
26947;DHT22;14501;52.282;10.560;2022-11-15T06:43:04;6.70;99.90
26947;DHT22;14501;52.282;10.560;2022-11-15T06:45:30;6.70;99.90
26947;DHT22;14501;52.282;10.560;2022-11-15T06:47:57;6.80;99.90
26947;DHT22;14501;52.282;10.560;2022-11-15T06:50:24;6.60;99.90
26947;DHT22;14501;52.282;10.560;2022-11-15T06:52:49;6.70;99.90
26947;DHT22;14501;52.282;10.560;2022-11-15T06:55:15;9.10;99.90
26947;DHT22;14501;52.282;10.560;2022-11-15T06:57:51;7.20;99.90
26947;DHT22;14501;52.282;10.560;2022-11-15T07:00:19;6.70;99.90
26947;DHT22;14501;52.282;10.560;2022-11-15T07:02:45;6.60;99.90
26947;DHT22;14501;52.282;10.560;2022-11-15T07:05:11;6.60;99.90
26947;DHT22;14501;52.282;10.560;2022-11-15T07:07:37;6.70;99.90
26947;DHT22;14501;52.282;10.560;2022-11-15T07:10:03;6.70;99.90
26947;DHT22;14501;52.282;10.560;2022-11-15T07:12:28;6.60;99.90
26947;DHT22;14501;52.282;10.560;2022-11-15T07:14:54;6.60;99.90
26947;DHT22;14501;52.282;10.560;2022-11-15T07:17:19;6.60;99.90
26947;DHT22;14501;52.282;10.560;2022-11-15T07:19:45;6.70;99.90
26947;DHT22;14501;52.282;10.560;2022-11-15T07:22:11;9.20;99.90
26947;DHT22;14501;52.282;10.560;2022-11-15T07:24:36;6.70;99.90
26947;DHT22;14501;52.282;10.560;2022-11-15T07:27:02;6.70;99.90
26947;DHT22;14501;52.282;10.560;2022-11-15T07:29:27;6.70;99.90
26947;DHT22;14501;52.282;10.560;2022-11-15T07:31:53;6.70;99.90
26947;DHT22;14501;52.282;10.560;2022-11-15T07:34:19;6.80;99.90
26947;DHT22;14501;52.282;10.560;2022-11-15T07:36:45;6.90;99.90
26947;DHT22;14501;52.282;10.560;2022-11-15T07:39:10;7.00;99.90
26947;DHT22;14501;52.282;10.560;2022-11-15T07:41:37;8.40;99.90
26947;DHT22;14501;52.282;10.560;2022-11-15T07:44:04;7.20;99.90
26947;DHT22;14501;52.282;10.560;2022-11-15T07:46:29;7.30;99.90
26947;DHT22;14501;52.282;10.560;2022-11-15T07:48:56;7.40;99.90
26947;DHT22;14501;52.282;10.560;2022-11-15T07:51:21;7.50;99.90
26947;DHT22;14501;52.282;10.560;2022-11-15T07:53:47;7.90;99.90
26947;DHT22;14501;52.282;10.560;2022-11-15T07:56:12;8.20;99.90
26947;DHT22;14501;52.282;10.560;2022-11-15T07:58:38;9.20;99.90
26947;DHT22;14501;52.282;10.560;2022-11-15T08:01:09;9.90;99.90
26947;DHT22;14501;52.282;10.560;2022-11-15T08:03:35;10.00;99.90
26947;DHT22;14501;52.282;10.560;2022-11-15T08:06:01;10.00;99.90
26947;DHT22;14501;52.282;10.560;2022-11-15T08:08:27;10.80;99.90
26947;DHT22;14501;52.282;10.560;2022-11-15T08:10:53;10.80;99.90
26947;DHT22;14501;52.282;10.560;2022-11-15T08:13:19;11.40;99.90
26947;DHT22;14501;52.282;10.560;2022-11-15T08:15:44;11.50;99.90
26947;DHT22;14501;52.282;10.560;2022-11-15T08:18:13;11.90;99.90
26947;DHT22;14501;52.282;10.560;2022-11-15T08:20:39;12.30;99.90
26947;DHT22;14501;52.282;10.560;2022-11-15T08:23:05;12.40;99.90
26947;DHT22;14501;52.282;10.560;2022-11-15T08:25:32;12.40;99.90
26947;DHT22;14501;52.282;10.560;2022-11-15T08:28:00;12.80;99.90
26947;DHT22;14501;52.282;10.560;2022-11-15T08:30:27;12.50;99.90
26947;DHT22;14501;52.282;10.560;2022-11-15T08:32:55;12.50;99.90
26947;DHT22;14501;52.282;10.560;2022-11-15T08:35:21;12.30;99.90
26947;DHT22;14501;52.282;10.560;2022-11-15T08:37:47;12.40;99.90
26947;DHT22;14501;52.282;10.560;2022-11-15T08:40:12;12.40;99.90
26947;DHT22;14501;52.282;10.560;2022-11-15T08:42:39;12.40;99.90
26947;DHT22;14501;52.282;10.560;2022-11-15T08:45:05;12.50;99.90
26947;DHT22;14501;52.282;10.560;2022-11-15T08:47:31;12.40;99.90
26947;DHT22;14501;52.282;10.560;2022-11-15T08:49:56;12.40;99.90
26947;DHT22;14501;52.282;10.560;2022-11-15T08:52:22;12.30;99.90
26947;DHT22;14501;52.282;10.560;2022-11-15T08:54:48;12.20;99.90
26947;DHT22;14501;52.282;10.560;2022-11-15T08:57:13;12.00;99.90
26947;DHT22;14501;52.282;10.560;2022-11-15T08:59:39;11.90;99.90
26947;DHT22;14501;52.282;10.560;2022-11-15T09:02:05;11.90;99.90
26947;DHT22;14501;52.282;10.560;2022-11-15T09:04:31;11.90;99.90
26947;DHT22;14501;52.282;10.560;2022-11-15T09:06:57;11.90;99.90
26947;DHT22;14501;52.282;10.560;2022-11-15T09:09:23;11.90;99.90
26947;DHT22;14501;52.282;10.560;2022-11-15T09:11:49;11.90;99.90
26947;DHT22;14501;52.282;10.560;2022-11-15T09:14:15;12.00;99.90
26947;DHT22;14501;52.282;10.560;2022-11-15T09:16:41;12.00;99.90
26947;DHT22;14501;52.282;10.560;2022-11-15T09:19:07;12.00;99.90
26947;DHT22;14501;52.282;10.560;2022-11-15T09:21:32;11.90;99.90
26947;DHT22;14501;52.282;10.560;2022-11-15T09:23:58;11.90;99.90
26947;DHT22;14501;52.282;10.560;2022-11-15T09:26:24;11.90;99.90
26947;DHT22;14501;52.282;10.560;2022-11-15T09:28:49;12.00;99.90
26947;DHT22;14501;52.282;10.560;2022-11-15T09:31:15;12.20;99.90
26947;DHT22;14501;52.282;10.560;2022-11-15T09:33:43;12.30;99.90
26947;DHT22;14501;52.282;10.560;2022-11-15T09:36:10;12.60;99.90
26947;DHT22;14501;52.282;10.560;2022-11-15T09:38:36;13.10;99.90
26947;DHT22;14501;52.282;10.560;2022-11-15T09:46:45;14.30;99.90
26947;DHT22;14501;52.282;10.560;2022-11-15T09:49:16;15.30;99.90
26947;DHT22;14501;52.282;10.560;2022-11-15T09:51:48;15.90;99.90
26947;DHT22;14501;52.282;10.560;2022-11-15T09:56:47;16.20;99.90
26947;DHT22;14501;52.282;10.560;2022-11-15T10:04:41;16.10;99.90
26947;DHT22;14501;52.282;10.560;2022-11-15T10:12:29;15.60;99.90
26947;DHT22;14501;52.282;10.560;2022-11-15T10:15:02;15.40;99.90
26947;DHT22;14501;52.282;10.560;2022-11-15T10:17:58;15.20;99.90
26947;DHT22;14501;52.282;10.560;2022-11-15T10:20:29;15.20;99.90
26947;DHT22;14501;52.282;10.560;2022-11-15T10:22:59;15.10;99.90
26947;DHT22;14501;52.282;10.560;2022-11-15T10:25:27;14.80;99.90
26947;DHT22;14501;52.282;10.560;2022-11-15T10:27:59;14.60;99.90
26947;DHT22;14501;52.282;10.560;2022-11-15T10:30:35;14.60;99.90
26947;DHT22;14501;52.282;10.560;2022-11-15T10:46:34;14.00;99.90
26947;DHT22;14501;52.282;10.560;2022-11-15T10:49:21;14.00;99.90
26947;DHT22;14501;52.282;10.560;2022-11-15T10:51:53;14.00;99.90
26947;DHT22;14501;52.282;10.560;2022-11-15T10:54:39;14.10;99.90
26947;DHT22;14501;52.282;10.560;2022-11-15T10:57:12;14.20;99.90
26947;DHT22;14501;52.282;10.560;2022-11-15T10:59:40;14.20;99.90
26947;DHT22;14501;52.282;10.560;2022-11-15T11:02:36;14.30;99.90
26947;DHT22;14501;52.282;10.560;2022-11-15T11:10:37;14.40;99.90
26947;DHT22;14501;52.282;10.560;2022-11-15T11:21:13;14.80;99.90
26947;DHT22;14501;52.282;10.560;2022-11-15T11:23:53;14.90;99.90
26947;DHT22;14501;52.282;10.560;2022-11-15T11:32:40;15.20;99.90
26947;DHT22;14501;52.282;10.560;2022-11-15T11:35:20;15.30;99.90
26947;DHT22;14501;52.282;10.560;2022-11-15T11:40:35;15.50;99.90
26947;DHT22;14501;52.282;10.560;2022-11-15T11:51:24;15.30;99.90
26947;DHT22;14501;52.282;10.560;2022-11-15T11:56:37;15.40;99.90
26947;DHT22;14501;52.282;10.560;2022-11-15T11:59:13;15.40;99.90
26947;DHT22;14501;52.282;10.560;2022-11-15T12:01:42;15.50;99.90
26947;DHT22;14501;52.282;10.560;2022-11-15T12:04:16;15.50;99.90
26947;DHT22;14501;52.282;10.560;2022-11-15T12:06:54;15.60;99.90
26947;DHT22;14501;52.282;10.560;2022-11-15T12:09:43;15.60;99.90
26947;DHT22;14501;52.282;10.560;2022-11-15T12:15:10;15.60;99.90
26947;DHT22;14501;52.282;10.560;2022-11-15T12:17:40;15.70;99.90
26947;DHT22;14501;52.282;10.560;2022-11-15T12:22:50;15.80;99.90
26947;DHT22;14501;52.282;10.560;2022-11-15T12:30:56;15.50;99.90
26947;DHT22;14501;52.282;10.560;2022-11-15T12:33:42;15.40;99.90
26947;DHT22;14501;52.282;10.560;2022-11-15T12:41:17;15.30;99.90
26947;DHT22;14501;52.282;10.560;2022-11-15T12:43:45;15.30;99.90
26947;DHT22;14501;52.282;10.560;2022-11-15T12:49:02;15.00;99.90
26947;DHT22;14501;52.282;10.560;2022-11-15T13:00:01;14.90;99.90
26947;DHT22;14501;52.282;10.560;2022-11-15T13:02:35;14.90;99.90
26947;DHT22;14501;52.282;10.560;2022-11-15T13:17:46;14.60;99.90
26947;DHT22;14501;52.282;10.560;2022-11-15T13:27:49;14.30;99.90
26947;DHT22;14501;52.282;10.560;2022-11-15T13:30:24;14.40;99.90
26947;DHT22;14501;52.282;10.560;2022-11-15T13:32:51;14.30;99.90
26947;DHT22;14501;52.282;10.560;2022-11-15T13:35:25;14.30;99.90
26947;DHT22;14501;52.282;10.560;2022-11-15T13:37:53;14.20;99.90
26947;DHT22;14501;52.282;10.560;2022-11-15T13:40:28;14.20;99.90
26947;DHT22;14501;52.282;10.560;2022-11-15T13:42:57;14.10;99.90
26947;DHT22;14501;52.282;10.560;2022-11-15T13:45:23;14.10;99.90
26947;DHT22;14501;52.282;10.560;2022-11-15T13:47:57;14.10;99.90
26947;DHT22;14501;52.282;10.560;2022-11-15T13:50:28;14.00;99.90
26947;DHT22;14501;52.282;10.560;2022-11-15T13:52:58;14.00;99.90
26947;DHT22;14501;52.282;10.560;2022-11-15T13:55:25;15.00;99.90
26947;DHT22;14501;52.282;10.560;2022-11-15T13:57:52;14.00;99.90
26947;DHT22;14501;52.282;10.560;2022-11-15T14:00:41;14.00;99.90
26947;DHT22;14501;52.282;10.560;2022-11-15T14:03:21;13.90;99.90
26947;DHT22;14501;52.282;10.560;2022-11-15T14:06:12;13.90;99.90
26947;DHT22;14501;52.282;10.560;2022-11-15T14:11:27;13.80;99.90
26947;DHT22;14501;52.282;10.560;2022-11-15T14:16:38;13.70;99.90
26947;DHT22;14501;52.282;10.560;2022-11-15T14:19:06;13.60;99.90
26947;DHT22;14501;52.282;10.560;2022-11-15T14:21:32;13.50;99.90
26947;DHT22;14501;52.282;10.560;2022-11-15T14:24:17;13.40;99.90
26947;DHT22;14501;52.282;10.560;2022-11-15T14:26:43;13.30;99.90
26947;DHT22;14501;52.282;10.560;2022-11-15T14:29:28;13.20;99.90
26947;DHT22;14501;52.282;10.560;2022-11-15T14:32:12;13.10;99.90
26947;DHT22;14501;52.282;10.560;2022-11-15T14:34:39;13.00;99.90
26947;DHT22;14501;52.282;10.560;2022-11-15T14:37:07;13.00;99.90
26947;DHT22;14501;52.282;10.560;2022-11-15T14:39:33;13.00;99.90
26947;DHT22;14501;52.282;10.560;2022-11-15T14:41:59;13.00;99.90
26947;DHT22;14501;52.282;10.560;2022-11-15T14:44:24;13.00;99.90
26947;DHT22;14501;52.282;10.560;2022-11-15T14:46:50;13.00;99.90
26947;DHT22;14501;52.282;10.560;2022-11-15T14:49:15;13.00;99.90
26947;DHT22;14501;52.282;10.560;2022-11-15T14:51:41;13.40;99.90
26947;DHT22;14501;52.282;10.560;2022-11-15T14:54:10;13.10;99.90
26947;DHT22;14501;52.282;10.560;2022-11-15T14:56:36;13.00;99.90
26947;DHT22;14501;52.282;10.560;2022-11-15T14:59:01;13.40;99.90
26947;DHT22;14501;52.282;10.560;2022-11-15T15:01:27;12.90;99.90
26947;DHT22;14501;52.282;10.560;2022-11-15T15:03:53;12.80;99.90
26947;DHT22;14501;52.282;10.560;2022-11-15T15:06:24;12.70;99.90
26947;DHT22;14501;52.282;10.560;2022-11-15T15:08:49;12.70;99.90
26947;DHT22;14501;52.282;10.560;2022-11-15T15:11:27;12.60;99.90
26947;DHT22;14501;52.282;10.560;2022-11-15T15:13:53;12.50;99.90
26947;DHT22;14501;52.282;10.560;2022-11-15T15:18:48;12.50;99.90
26947;DHT22;14501;52.282;10.560;2022-11-15T15:21:25;12.50;99.90
26947;DHT22;14501;52.282;10.560;2022-11-15T15:23:51;12.40;99.90
26947;DHT22;14501;52.282;10.560;2022-11-15T15:26:19;12.30;99.90
26947;DHT22;14501;52.282;10.560;2022-11-15T15:28:45;12.40;99.90
26947;DHT22;14501;52.282;10.560;2022-11-15T15:31:11;12.40;99.90
26947;DHT22;14501;52.282;10.560;2022-11-15T15:33:37;12.30;99.90
26947;DHT22;14501;52.282;10.560;2022-11-15T15:36:03;12.20;99.90
26947;DHT22;14501;52.282;10.560;2022-11-15T15:38:29;12.20;99.90
26947;DHT22;14501;52.282;10.560;2022-11-15T15:40:54;12.10;99.90
26947;DHT22;14501;52.282;10.560;2022-11-15T15:43:20;12.30;99.90
26947;DHT22;14501;52.282;10.560;2022-11-15T15:45:46;12.00;99.90
26947;DHT22;14501;52.282;10.560;2022-11-15T15:48:16;11.80;99.90
26947;DHT22;14501;52.282;10.560;2022-11-15T15:50:42;12.00;99.90
26947;DHT22;14501;52.282;10.560;2022-11-15T15:53:09;12.10;99.90
26947;DHT22;14501;52.282;10.560;2022-11-15T15:55:36;12.00;99.90
26947;DHT22;14501;52.282;10.560;2022-11-15T15:58:03;12.00;99.90
26947;DHT22;14501;52.282;10.560;2022-11-15T16:00:29;12.80;99.90
26947;DHT22;14501;52.282;10.560;2022-11-15T16:02:58;11.90;99.90
26947;DHT22;14501;52.282;10.560;2022-11-15T16:05:24;11.90;99.90
26947;DHT22;14501;52.282;10.560;2022-11-15T16:07:50;11.90;99.90
26947;DHT22;14501;52.282;10.560;2022-11-15T16:10:23;11.50;99.90
26947;DHT22;14501;52.282;10.560;2022-11-15T16:12:50;11.80;99.90
26947;DHT22;14501;52.282;10.560;2022-11-15T16:15:16;11.80;99.90
26947;DHT22;14501;52.282;10.560;2022-11-15T16:17:47;11.70;99.90
26947;DHT22;14501;52.282;10.560;2022-11-15T16:22:58;11.70;99.90
26947;DHT22;14501;52.282;10.560;2022-11-15T16:25:24;11.70;99.90
26947;DHT22;14501;52.282;10.560;2022-11-15T16:27:50;11.70;99.90
26947;DHT22;14501;52.282;10.560;2022-11-15T16:30:18;11.70;99.90
26947;DHT22;14501;52.282;10.560;2022-11-15T16:32:44;11.80;99.90
26947;DHT22;14501;52.282;10.560;2022-11-15T16:35:14;11.80;99.90
26947;DHT22;14501;52.282;10.560;2022-11-15T16:37:40;12.10;99.90
26947;DHT22;14501;52.282;10.560;2022-11-15T16:40:25;11.70;99.90
26947;DHT22;14501;52.282;10.560;2022-11-15T16:42:51;11.70;99.90
26947;DHT22;14501;52.282;10.560;2022-11-15T16:45:17;11.70;99.90
26947;DHT22;14501;52.282;10.560;2022-11-15T16:47:42;11.70;99.90
26947;DHT22;14501;52.282;10.560;2022-11-15T16:50:23;11.70;99.90
26947;DHT22;14501;52.282;10.560;2022-11-15T16:52:57;11.70;99.90
26947;DHT22;14501;52.282;10.560;2022-11-15T16:55:25;11.70;99.90
26947;DHT22;14501;52.282;10.560;2022-11-15T16:57:52;11.70;99.90
26947;DHT22;14501;52.282;10.560;2022-11-15T17:00:19;11.70;99.90
26947;DHT22;14501;52.282;10.560;2022-11-15T17:02:46;11.60;99.90
26947;DHT22;14501;52.282;10.560;2022-11-15T17:05:13;11.60;99.90
26947;DHT22;14501;52.282;10.560;2022-11-15T17:07:39;11.60;99.90
26947;DHT22;14501;52.282;10.560;2022-11-15T17:10:06;11.60;99.90
26947;DHT22;14501;52.282;10.560;2022-11-15T17:12:33;11.60;99.90
26947;DHT22;14501;52.282;10.560;2022-11-15T17:14:59;11.50;99.90
26947;DHT22;14501;52.282;10.560;2022-11-15T17:17:25;11.50;99.90
26947;DHT22;14501;52.282;10.560;2022-11-15T17:19:51;11.40;99.90
26947;DHT22;14501;52.282;10.560;2022-11-15T17:24:43;11.60;99.90
26947;DHT22;14501;52.282;10.560;2022-11-15T17:27:09;11.50;99.90
26947;DHT22;14501;52.282;10.560;2022-11-15T17:29:35;11.20;99.90
26947;DHT22;14501;52.282;10.560;2022-11-15T17:32:00;11.40;99.90
26947;DHT22;14501;52.282;10.560;2022-11-15T17:34:26;11.40;99.90
26947;DHT22;14501;52.282;10.560;2022-11-15T17:39:17;11.30;99.90
26947;DHT22;14501;52.282;10.560;2022-11-15T17:41:45;11.40;99.90
26947;DHT22;14501;52.282;10.560;2022-11-15T17:44:11;11.40;99.90
26947;DHT22;14501;52.282;10.560;2022-11-15T17:46:37;11.20;99.90
26947;DHT22;14501;52.282;10.560;2022-11-15T17:49:02;12.10;99.90
26947;DHT22;14501;52.282;10.560;2022-11-15T17:53:55;10.90;99.90
26947;DHT22;14501;52.282;10.560;2022-11-15T17:56:22;11.20;99.90
26947;DHT22;14501;52.282;10.560;2022-11-15T17:58:56;11.30;99.90
26947;DHT22;14501;52.282;10.560;2022-11-15T18:01:28;11.30;99.90
26947;DHT22;14501;52.282;10.560;2022-11-15T18:03:54;11.30;99.90
26947;DHT22;14501;52.282;10.560;2022-11-15T18:06:22;11.30;99.90
26947;DHT22;14501;52.282;10.560;2022-11-15T18:08:49;11.30;99.90
26947;DHT22;14501;52.282;10.560;2022-11-15T18:11:18;11.30;99.90
26947;DHT22;14501;52.282;10.560;2022-11-15T18:13:46;11.30;99.90
26947;DHT22;14501;52.282;10.560;2022-11-15T18:16:14;11.20;99.90
26947;DHT22;14501;52.282;10.560;2022-11-15T18:18:41;11.20;99.90
26947;DHT22;14501;52.282;10.560;2022-11-15T18:21:13;11.30;99.90
26947;DHT22;14501;52.282;10.560;2022-11-15T18:23:41;11.30;99.90
26947;DHT22;14501;52.282;10.560;2022-11-15T18:26:08;11.60;99.90
26947;DHT22;14501;52.282;10.560;2022-11-15T18:28:36;11.60;99.90
26947;DHT22;14501;52.282;10.560;2022-11-15T18:31:05;12.20;99.90
26947;DHT22;14501;52.282;10.560;2022-11-15T18:33:36;11.80;99.90